createdAt,value
2023-06-22T00:00:23.875Z,101644.25
2023-06-22T00:02:50.977Z,101642.81
2023-06-22T00:05:18.050Z,101644.69
2023-06-22T00:07:45.129Z,101629.94
2023-06-22T00:10:12.228Z,101619.03
2023-06-22T00:12:39.362Z,101613.50
2023-06-22T00:15:06.980Z,101626.81
2023-06-22T00:17:34.089Z,101611.03
2023-06-22T00:20:01.339Z,101623.78
2023-06-22T00:22:31.112Z,101615.78
2023-06-22T00:24:58.291Z,101615.13
2023-06-22T00:27:25.350Z,101614.50
2023-06-22T00:29:52.809Z,101606.50
2023-06-22T00:32:20.169Z,101605.28
2023-06-22T00:34:47.289Z,101607.78
2023-06-22T00:37:14.317Z,101614.94
2023-06-22T00:39:41.538Z,101612.66
2023-06-22T00:42:08.692Z,101611.84
2023-06-22T00:44:37.468Z,101613.69
2023-06-22T00:47:05.915Z,101607.31
2023-06-22T00:49:32.973Z,101615.34
2023-06-22T00:52:00.267Z,101617.81
2023-06-22T00:54:27.715Z,101623.75
2023-06-22T00:56:57.395Z,101616.56
2023-06-22T00:59:27.203Z,101603.44
2023-06-22T01:01:54.616Z,101603.84
2023-06-22T01:04:25.314Z,101597.69
2023-06-22T01:07:14.359Z,101601.19
2023-06-22T01:10:13.902Z,101607.56
2023-06-22T01:12:48.389Z,101598.09
2023-06-22T01:15:22.144Z,101600.16
2023-06-22T01:17:51.491Z,101594.41
2023-06-22T01:20:18.917Z,101596.44
2023-06-22T01:23:13.332Z,101603.81
2023-06-22T01:26:04.397Z,101594.38
2023-06-22T01:28:48.878Z,101596.03
2023-06-22T01:31:21.092Z,101592.97
2023-06-22T01:34:02.508Z,101583.13
2023-06-22T01:36:30.868Z,101581.06
2023-06-22T01:38:59.830Z,101590.50
2023-06-22T01:41:28.753Z,101595.63
2023-06-22T01:43:57.297Z,101598.28
2023-06-22T01:46:24.759Z,101595.34
2023-06-22T01:48:52.689Z,101600.81
2023-06-22T01:51:19.914Z,101612.28
2023-06-22T01:53:48.947Z,101603.53
2023-06-22T01:56:19.592Z,101606.56
2023-06-22T01:59:15.590Z,101600.78
2023-06-22T02:02:08.299Z,101604.31
2023-06-22T02:05:13.713Z,101602.25
2023-06-22T02:07:51.329Z,101604.09
2023-06-22T02:10:22.028Z,101593.84
2023-06-22T02:12:49.894Z,101589.84
2023-06-22T02:15:21.907Z,101599.81
2023-06-22T02:17:49.953Z,101587.50
2023-06-22T02:20:17.108Z,101582.28
2023-06-22T02:22:44.356Z,101583.78
2023-06-22T02:25:11.612Z,101591.19
2023-06-22T02:27:41.566Z,101591.28
2023-06-22T02:30:15.999Z,101578.44
2023-06-22T02:32:43.797Z,101575.38
2023-06-22T02:35:11.275Z,101569.22
2023-06-22T02:37:43.171Z,101574.47
2023-06-22T02:40:11.365Z,101569.69
2023-06-22T02:42:40.466Z,101567.41
2023-06-22T02:45:08.405Z,101572.53
2023-06-22T02:47:35.836Z,101568.72
2023-06-22T02:50:03.104Z,101560.72
2023-06-22T02:52:30.198Z,101561.69
2023-06-22T02:54:57.365Z,101555.78
2023-06-22T02:57:24.441Z,101551.66
2023-06-22T02:59:51.486Z,101552.09
2023-06-22T03:02:18.972Z,101566.63
2023-06-22T03:04:49.783Z,101563.19
2023-06-22T03:07:18.935Z,101565.16
2023-06-22T03:09:45.963Z,101565.16
2023-06-22T03:12:13.101Z,101553.13
2023-06-22T03:14:42.387Z,101556.50
2023-06-22T03:17:09.910Z,101553.25
2023-06-22T03:19:37.005Z,101545.28
2023-06-22T03:22:08.113Z,101553.78
2023-06-22T03:24:35.826Z,101538.72
2023-06-22T03:27:06.040Z,101560.13
2023-06-22T03:29:33.157Z,101558.63
2023-06-22T03:32:00.171Z,101552.22
2023-06-22T03:34:27.156Z,101550.00
2023-06-22T03:36:54.284Z,101557.72
2023-06-22T03:39:21.429Z,101556.72
2023-06-22T03:41:48.456Z,101559.69
2023-06-22T03:44:15.581Z,101564.38
2023-06-22T03:46:42.715Z,101571.53
2023-06-22T03:49:09.758Z,101566.72
2023-06-22T03:51:36.924Z,101564.84
2023-06-22T03:54:03.986Z,101568.78
2023-06-22T03:56:31.223Z,101559.03
2023-06-22T03:58:58.463Z,101558.56
2023-06-22T04:01:25.502Z,101565.91
2023-06-22T04:03:52.761Z,101558.13
2023-06-22T04:06:19.956Z,101563.31
2023-06-22T04:08:52.261Z,101573.94
2023-06-22T04:11:19.826Z,101577.84
2023-06-22T04:13:46.959Z,101567.31
2023-06-22T04:16:18.114Z,101568.03
2023-06-22T04:18:45.189Z,101565.63
2023-06-22T04:21:12.189Z,101569.59
2023-06-22T04:23:39.180Z,101567.00
2023-06-22T04:26:06.533Z,101548.38
2023-06-22T04:28:36.545Z,101551.47
2023-06-22T04:31:05.898Z,101557.41
2023-06-22T04:33:33.271Z,101549.94
2023-06-22T04:36:04.907Z,101554.16
2023-06-22T04:38:34.348Z,101550.81
2023-06-22T04:41:04.701Z,101547.72
2023-06-22T04:43:32.044Z,101560.69
2023-06-22T04:46:04.465Z,101559.19
2023-06-22T04:48:34.543Z,101553.28
2023-06-22T04:51:05.196Z,101557.00
2023-06-22T04:53:33.040Z,101571.75
2023-06-22T04:56:00.057Z,101567.94
2023-06-22T04:58:29.962Z,101561.78
2023-06-22T05:00:58.190Z,101555.44
2023-06-22T05:03:28.233Z,101563.22
2023-06-22T05:05:55.766Z,101561.09
2023-06-22T05:08:22.808Z,101561.19
2023-06-22T05:11:04.282Z,101562.19
2023-06-22T05:13:32.818Z,101553.59
2023-06-22T05:16:03.237Z,101568.13
2023-06-22T05:18:34.247Z,101565.69
2023-06-22T05:21:01.602Z,101560.53
2023-06-22T05:23:28.600Z,101558.31
2023-06-22T05:25:58.690Z,101561.38
2023-06-22T05:28:25.783Z,101548.19
2023-06-22T05:30:52.815Z,101542.59
2023-06-22T05:33:19.884Z,101553.03
2023-06-22T05:35:46.970Z,101550.34
2023-06-22T05:38:15.236Z,101555.78
2023-06-22T05:40:42.266Z,101544.91
2023-06-22T05:43:09.351Z,101550.78
2023-06-22T05:45:36.434Z,101556.28
2023-06-22T05:48:03.703Z,101558.19
2023-06-22T05:50:31.043Z,101543.25
2023-06-22T05:52:58.431Z,101542.03
2023-06-22T05:55:25.533Z,101539.91
2023-06-22T05:57:52.600Z,101543.38
2023-06-22T06:00:20.454Z,101536.19
2023-06-22T06:02:47.656Z,101529.44
2023-06-22T06:05:15.405Z,101525.72
2023-06-22T06:07:43.936Z,101516.63
2023-06-22T06:10:11.751Z,101512.88
2023-06-22T06:12:38.864Z,101512.19
2023-06-22T06:15:07.727Z,101509.56
2023-06-22T06:17:36.119Z,101490.66
2023-06-22T06:20:05.979Z,101499.63
2023-06-22T06:22:33.500Z,101501.34
2023-06-22T06:25:00.514Z,101496.53
2023-06-22T06:27:30.395Z,101499.44
2023-06-22T06:29:57.910Z,101491.09
2023-06-22T06:32:28.069Z,101490.34
2023-06-22T06:34:55.077Z,101480.47
2023-06-22T06:37:23.465Z,101491.56
2023-06-22T06:39:50.530Z,101486.59
2023-06-22T06:42:17.655Z,101487.63
2023-06-22T06:44:44.641Z,101475.09
2023-06-22T06:47:11.757Z,101482.72
2023-06-22T06:49:38.761Z,101484.44
2023-06-22T06:52:06.692Z,101475.34
2023-06-22T06:54:33.730Z,101473.38
2023-06-22T06:57:00.720Z,101467.88
2023-06-22T06:59:27.826Z,101465.44
2023-06-22T07:01:54.931Z,101459.84
2023-06-22T07:04:22.091Z,101461.50
2023-06-22T07:06:49.234Z,101452.91
2023-06-22T07:09:16.261Z,101444.63
2023-06-22T07:11:43.330Z,101440.78
2023-06-22T07:14:13.462Z,101438.41
2023-06-22T07:16:40.466Z,101433.81
2023-06-22T07:19:10.341Z,101436.94
2023-06-22T07:21:37.593Z,101428.97
2023-06-22T07:24:07.101Z,101430.22
2023-06-22T07:26:34.818Z,101419.38
2023-06-22T07:29:01.939Z,101417.94
2023-06-22T07:31:29.212Z,101418.34
2023-06-22T07:33:56.596Z,101427.00
2023-06-22T07:36:23.574Z,101424.16
2023-06-22T07:38:50.551Z,101428.91
2023-06-22T07:41:17.519Z,101427.44
2023-06-22T07:43:44.500Z,101432.16
2023-06-22T07:46:11.641Z,101433.84
2023-06-22T07:48:40.280Z,101438.44
2023-06-22T07:51:07.476Z,101430.31
2023-06-22T07:53:34.651Z,101431.31
2023-06-22T07:56:01.807Z,101438.09
2023-06-22T07:58:28.852Z,101435.97
2023-06-22T08:00:59.274Z,101428.81
2023-06-22T08:03:33.118Z,101427.09
2023-06-22T08:06:05.219Z,101427.34
2023-06-22T08:08:33.106Z,101417.25
2023-06-22T08:11:00.145Z,101418.22
2023-06-22T08:13:27.137Z,101417.88
2023-06-22T08:15:54.111Z,101423.38
2023-06-22T08:18:21.433Z,101422.47
2023-06-22T08:20:48.511Z,101423.94
2023-06-22T08:23:15.546Z,101424.97
2023-06-22T08:25:42.671Z,101422.53
2023-06-22T08:28:09.889Z,101425.88
2023-06-22T08:30:36.886Z,101420.34
2023-06-22T08:33:04.074Z,101416.56
2023-06-22T08:35:32.180Z,101416.16
2023-06-22T08:38:00.931Z,101418.22
2023-06-22T08:40:28.085Z,101419.13
2023-06-22T08:42:55.149Z,101422.38
2023-06-22T08:45:22.218Z,101430.25
2023-06-22T08:47:49.453Z,101437.25
2023-06-22T08:50:18.987Z,101437.56
2023-06-22T08:52:46.851Z,101435.63
2023-06-22T08:55:15.654Z,101442.31
2023-06-22T08:57:44.104Z,101450.78
2023-06-22T09:00:18.807Z,101445.09
2023-06-22T09:02:46.619Z,101448.34
2023-06-22T09:05:14.451Z,101445.72
2023-06-22T09:07:41.787Z,101453.16
2023-06-22T09:10:09.429Z,101447.34
2023-06-22T09:12:38.716Z,101444.97
2023-06-22T09:15:28.492Z,101450.16
2023-06-22T09:17:55.891Z,101442.31
2023-06-22T09:20:23.135Z,101456.19
2023-06-22T09:26:11.020Z,101450.66
2023-06-22T09:28:38.179Z,101447.88
2023-06-22T09:31:05.390Z,101454.75
2023-06-22T09:33:32.609Z,101459.06
2023-06-22T09:35:59.725Z,101465.97
2023-06-22T09:38:26.949Z,101457.66
2023-06-22T09:40:53.996Z,101472.25
2023-06-22T09:43:21.205Z,101474.47
2023-06-22T09:45:48.337Z,101479.72
2023-06-22T09:48:15.870Z,101470.25
2023-06-22T09:50:42.974Z,101478.91
2023-06-22T09:53:09.935Z,101474.69
2023-06-22T09:55:37.027Z,101476.22
2023-06-22T09:58:04.116Z,101474.13
2023-06-22T10:00:31.659Z,101483.78
2023-06-22T10:03:01.054Z,101481.78
2023-06-22T10:05:28.879Z,101476.66
2023-06-22T10:07:56.198Z,101486.81
2023-06-22T10:10:23.230Z,101481.59
2023-06-22T10:12:58.832Z,101479.50
2023-06-22T10:15:32.622Z,101480.19
2023-06-22T10:18:00.088Z,101477.38
2023-06-22T10:20:27.597Z,101475.88
2023-06-22T10:22:56.174Z,101484.88
2023-06-22T10:25:24.217Z,101473.44
2023-06-22T10:27:51.886Z,101474.78
2023-06-22T10:30:22.520Z,101465.31
2023-06-22T10:32:49.626Z,101461.25
2023-06-22T10:35:17.423Z,101463.47
2023-06-22T10:37:46.347Z,101457.31
2023-06-22T10:40:16.238Z,101465.75
2023-06-22T10:42:43.792Z,101453.63
2023-06-22T10:45:11.567Z,101454.94
2023-06-22T10:47:39.148Z,101445.38
2023-06-22T10:50:07.164Z,101451.78
2023-06-22T10:52:34.367Z,101447.13
2023-06-22T10:55:01.370Z,101452.38
2023-06-22T10:57:28.428Z,101455.09
2023-06-22T10:59:55.732Z,101447.63
2023-06-22T11:02:22.932Z,101440.34
2023-06-22T11:04:50.045Z,101437.84
2023-06-22T11:07:17.563Z,101432.13
2023-06-22T11:09:45.315Z,101433.53
2023-06-22T11:12:12.611Z,101426.88
2023-06-22T11:14:40.728Z,101425.03
2023-06-22T11:17:07.937Z,101423.78
2023-06-22T11:19:35.203Z,101415.25
2023-06-22T11:22:02.200Z,101423.72
2023-06-22T11:24:29.265Z,101419.56
2023-06-22T11:26:57.976Z,101403.94
2023-06-22T11:29:36.756Z,101415.13
2023-06-22T11:32:07.601Z,101415.13
2023-06-22T11:34:34.855Z,101414.97
2023-06-22T11:37:02.515Z,101418.41
2023-06-22T11:39:39.186Z,101417.72
2023-06-22T11:42:09.300Z,101422.34
2023-06-22T11:44:39.770Z,101427.97
2023-06-22T11:47:07.247Z,101429.31
2023-06-22T11:49:34.614Z,101420.78
2023-06-22T11:52:01.798Z,101420.22
2023-06-22T11:54:28.823Z,101427.44
2023-06-22T11:56:56.289Z,101421.28
2023-06-22T11:59:23.535Z,101421.16
2023-06-22T12:01:52.356Z,101417.59
2023-06-22T12:04:22.510Z,101414.22
2023-06-22T12:06:50.515Z,101408.84
2023-06-22T12:09:17.568Z,101404.53
2023-06-22T12:11:44.726Z,101409.66
2023-06-22T12:14:11.901Z,101397.25
2023-06-22T12:16:39.144Z,101402.06
2023-06-22T12:19:06.600Z,101401.03
2023-06-22T12:21:34.994Z,101400.41
2023-06-22T12:24:02.064Z,101399.22
2023-06-22T12:26:29.139Z,101404.28
2023-06-22T12:28:56.205Z,101403.69
2023-06-22T12:31:23.223Z,101416.59
2023-06-22T12:33:50.336Z,101411.75
2023-06-22T12:36:17.690Z,101409.19
2023-06-22T12:38:44.676Z,101415.06
2023-06-22T12:41:11.791Z,101394.69
2023-06-22T12:43:38.848Z,101408.41
2023-06-22T12:46:05.948Z,101397.13
2023-06-22T12:48:32.958Z,101397.56
2023-06-22T12:50:59.966Z,101393.41
2023-06-22T12:53:28.515Z,101397.13
2023-06-22T12:55:55.590Z,101400.56
2023-06-22T12:58:22.570Z,101399.06
2023-06-22T13:00:50.359Z,101402.56
2023-06-22T13:03:17.661Z,101394.19
2023-06-22T13:05:44.681Z,101392.06
2023-06-22T13:08:13.226Z,101403.59
2023-06-22T13:10:40.509Z,101398.63
2023-06-22T13:13:07.495Z,101392.81
2023-06-22T13:15:34.658Z,101391.78
2023-06-22T13:18:02.072Z,101395.28
2023-06-22T13:20:30.539Z,101388.44
2023-06-22T13:22:58.042Z,101403.31
2023-06-22T13:25:27.858Z,101403.63
2023-06-22T13:27:55.334Z,101389.38
2023-06-22T13:30:22.368Z,101390.69
2023-06-22T13:32:52.623Z,101391.81
2023-06-22T13:35:19.743Z,101393.72
2023-06-22T13:37:46.740Z,101387.88
2023-06-22T13:40:14.005Z,101382.31
2023-06-22T13:42:41.404Z,101386.34
2023-06-22T13:45:09.373Z,101381.53
2023-06-22T13:47:36.501Z,101374.00
2023-06-22T13:50:04.226Z,101374.97
2023-06-22T13:52:31.206Z,101358.53
2023-06-22T13:54:58.326Z,101359.56
2023-06-22T13:57:25.336Z,101356.94
2023-06-22T13:59:52.654Z,101353.09
2023-06-22T14:02:19.768Z,101354.13
2023-06-22T14:05:05.521Z,101360.22
2023-06-22T14:07:32.880Z,101351.22
2023-06-22T14:10:01.359Z,101358.81
2023-06-22T14:12:28.404Z,101347.63
2023-06-22T14:14:56.206Z,101361.03
2023-06-22T14:17:26.518Z,101364.84
2023-06-22T14:19:54.288Z,101367.53
2023-06-22T14:22:22.601Z,101368.34
2023-06-22T14:24:50.183Z,101372.69
2023-06-22T14:27:17.420Z,101356.69
2023-06-22T14:29:44.555Z,101358.91
2023-06-22T14:32:11.654Z,101361.81
2023-06-22T14:34:40.596Z,101361.03
2023-06-22T14:37:12.390Z,101360.78
2023-06-22T14:39:40.485Z,101359.41
2023-06-22T14:42:07.808Z,101358.72
2023-06-22T14:44:34.900Z,101363.81
2023-06-22T14:47:01.913Z,101354.66
2023-06-22T14:49:28.924Z,101358.81
2023-06-22T14:51:55.994Z,101365.06
2023-06-22T14:54:23.138Z,101355.38
2023-06-22T14:56:50.118Z,101357.28
2023-06-22T14:59:17.194Z,101370.31
2023-06-22T15:01:45.536Z,101359.91
2023-06-22T15:04:14.825Z,101376.53
2023-06-22T15:06:42.000Z,101377.31
2023-06-22T15:09:08.995Z,101382.03
2023-06-22T15:11:36.014Z,101386.25
2023-06-22T15:14:03.127Z,101382.31
2023-06-22T15:16:30.114Z,101382.50
2023-06-22T15:18:57.185Z,101381.03
2023-06-22T15:21:24.459Z,101382.97
2023-06-22T15:23:51.428Z,101386.31
2023-06-22T15:26:18.567Z,101387.88
2023-06-22T15:28:45.639Z,101395.22
2023-06-22T15:31:12.669Z,101401.78
2023-06-22T15:33:39.665Z,101402.81
2023-06-22T15:36:08.087Z,101391.31
2023-06-22T15:38:35.301Z,101398.06
2023-06-22T15:41:02.731Z,101405.50
2023-06-22T15:43:29.813Z,101404.75
2023-06-22T15:45:56.964Z,101404.44
2023-06-22T15:48:24.012Z,101402.94
2023-06-22T15:50:51.197Z,101406.41
2023-06-22T15:53:18.212Z,101410.16
2023-06-22T15:55:45.793Z,101430.56
2023-06-22T15:58:14.260Z,101431.38
2023-06-22T16:00:41.379Z,101425.59
2023-06-22T16:03:09.611Z,101427.34
2023-06-22T16:05:36.738Z,101412.31
2023-06-22T16:08:03.848Z,101417.03
2023-06-22T16:10:31.464Z,101411.56
2023-06-22T16:12:58.779Z,101405.56
2023-06-22T16:15:25.739Z,101403.00
2023-06-22T16:17:52.760Z,101417.66
2023-06-22T16:20:22.527Z,101421.16
2023-06-22T16:22:49.601Z,101422.91
2023-06-22T16:25:16.693Z,101423.03
2023-06-22T16:27:46.400Z,101415.81
2023-06-22T16:30:13.576Z,101421.59
2023-06-22T16:32:40.681Z,101412.72
2023-06-22T16:35:08.593Z,101411.13
2023-06-22T16:37:35.583Z,101404.56
2023-06-22T16:40:02.573Z,101410.13
2023-06-22T16:42:29.619Z,101415.13
2023-06-22T16:44:56.677Z,101412.28
2023-06-22T16:47:23.936Z,101415.53
2023-06-22T16:49:51.030Z,101407.75
2023-06-22T16:52:17.997Z,101412.19
2023-06-22T16:54:59.918Z,101414.84
2023-06-22T16:57:27.977Z,101418.69
2023-06-22T16:59:55.201Z,101428.56
2023-06-22T17:02:25.748Z,101433.72
2023-06-22T17:04:59.915Z,101437.44
2023-06-22T17:07:29.734Z,101446.97
2023-06-22T17:09:58.461Z,101445.97
2023-06-22T17:12:26.800Z,101453.44
2023-06-22T17:14:53.992Z,101461.19
2023-06-22T17:17:25.531Z,101470.66
2023-06-22T17:19:52.948Z,101459.91
2023-06-22T17:22:20.132Z,101472.50
2023-06-22T17:24:49.053Z,101474.63
2023-06-22T17:27:27.504Z,101481.16
2023-06-22T17:30:11.201Z,101487.94
2023-06-22T17:32:38.911Z,101484.56
2023-06-22T17:35:06.800Z,101487.06
2023-06-22T17:37:58.562Z,101489.16
2023-06-22T17:40:27.556Z,101487.91
2023-06-22T17:43:08.624Z,101492.63
2023-06-22T17:45:43.798Z,101492.63
2023-06-22T17:48:11.833Z,101499.47
2023-06-22T17:50:43.269Z,101502.00
2023-06-22T17:53:14.301Z,101498.97
2023-06-22T17:55:41.588Z,101509.34
2023-06-22T17:58:08.918Z,101498.38
2023-06-22T18:00:39.970Z,101496.28
2023-06-22T18:03:07.184Z,101495.78
2023-06-22T18:05:36.206Z,101505.38
2023-06-22T18:08:05.575Z,101513.22
2023-06-22T18:10:36.969Z,101517.06
2023-06-22T18:13:05.656Z,101528.19
2023-06-22T18:15:36.128Z,101526.66
2023-06-22T18:18:03.953Z,101515.75
2023-06-22T18:20:33.725Z,101527.56
2023-06-22T18:23:01.499Z,101531.09
2023-06-22T18:25:35.061Z,101535.03
2023-06-22T18:28:02.811Z,101529.00
2023-06-22T18:30:30.189Z,101531.72
2023-06-22T18:32:59.551Z,101534.22
2023-06-22T18:35:27.082Z,101541.06
2023-06-22T18:37:54.910Z,101543.50
2023-06-22T18:40:22.267Z,101548.09
2023-06-22T18:42:49.740Z,101548.09
2023-06-22T18:45:26.385Z,101552.53
2023-06-22T18:48:05.466Z,101546.38
2023-06-22T18:50:43.613Z,101549.63
2023-06-22T18:53:28.204Z,101551.84
2023-06-22T18:56:14.236Z,101553.25
2023-06-22T18:58:41.756Z,101552.50
2023-06-22T19:01:28.341Z,101552.84
2023-06-22T19:04:02.958Z,101550.28
2023-06-22T19:06:52.102Z,101555.41
2023-06-22T19:09:20.140Z,101552.28
2023-06-22T19:11:48.984Z,101564.34
2023-06-22T19:14:23.835Z,101565.41
2023-06-22T19:17:00.504Z,101574.59
2023-06-22T19:19:27.672Z,101578.00
2023-06-22T19:22:01.983Z,101596.94
2023-06-22T19:24:34.043Z,101587.53
2023-06-22T19:27:01.376Z,101596.84
2023-06-22T19:29:29.292Z,101591.72
2023-06-22T19:31:58.389Z,101596.06
2023-06-22T19:34:27.660Z,101604.59
2023-06-22T19:36:57.617Z,101605.56
2023-06-22T19:39:35.768Z,101609.94
2023-06-22T19:42:02.788Z,101613.69
2023-06-22T19:44:33.603Z,101625.88
2023-06-22T19:47:00.715Z,101621.56
2023-06-22T19:49:27.795Z,101639.13
2023-06-22T19:51:54.929Z,101636.44
2023-06-22T19:54:23.802Z,101633.47
2023-06-22T19:56:52.222Z,101640.19
2023-06-22T19:59:24.171Z,101653.81
2023-06-22T20:01:51.204Z,101649.41
2023-06-22T20:04:18.314Z,101650.50
2023-06-22T20:07:06.395Z,101646.94
2023-06-22T20:09:34.911Z,101651.84
2023-06-22T20:12:02.315Z,101648.78
2023-06-22T20:14:35.189Z,101646.50
2023-06-22T20:17:05.573Z,101652.84
2023-06-22T20:19:54.879Z,101653.66
2023-06-22T20:22:21.929Z,101654.50
2023-06-22T20:24:48.930Z,101650.69
2023-06-22T20:27:16.014Z,101661.34
2023-06-22T20:29:44.628Z,101661.09
2023-06-22T20:32:14.775Z,101666.03
2023-06-22T20:34:49.190Z,101662.03
2023-06-22T20:37:23.285Z,101656.22
2023-06-22T20:39:50.809Z,101662.22
2023-06-22T20:42:18.933Z,101655.59
2023-06-22T20:44:52.432Z,101662.44
2023-06-22T20:47:21.697Z,101667.75
2023-06-22T20:49:50.370Z,101663.41
2023-06-22T20:52:18.668Z,101657.19
2023-06-22T20:54:45.936Z,101661.78
2023-06-22T20:57:13.014Z,101654.09
2023-06-22T20:59:40.068Z,101651.75
2023-06-22T21:02:10.331Z,101662.31
2023-06-22T21:04:38.158Z,101668.25
2023-06-22T21:07:05.936Z,101668.47
2023-06-22T21:09:45.986Z,101671.19
2023-06-22T21:12:18.843Z,101669.34
2023-06-22T21:14:45.929Z,101671.88
2023-06-22T21:17:13.148Z,101677.63
2023-06-22T21:19:40.386Z,101686.69
2023-06-22T21:22:07.806Z,101690.41
2023-06-22T21:24:34.796Z,101696.53
2023-06-22T21:27:01.999Z,101700.88
2023-06-22T21:29:29.033Z,101695.13
2023-06-22T21:31:56.386Z,101706.44
2023-06-22T21:34:24.086Z,101708.53
2023-06-22T21:36:51.119Z,101704.38
2023-06-22T21:39:18.285Z,101714.69
2023-06-22T21:41:45.316Z,101720.38
2023-06-22T21:44:12.403Z,101722.47
2023-06-22T21:46:39.396Z,101718.19
2023-06-22T21:49:06.487Z,101725.34
2023-06-22T21:51:35.019Z,101717.75
2023-06-22T21:54:02.453Z,101716.94
2023-06-22T21:56:29.540Z,101719.41
2023-06-22T21:58:58.090Z,101734.16
2023-06-22T22:01:25.220Z,101730.69
2023-06-22T22:03:52.458Z,101732.56
2023-06-22T22:06:21.592Z,101723.72
2023-06-22T22:08:48.943Z,101729.66
2023-06-22T22:11:16.222Z,101736.66
2023-06-22T22:13:43.718Z,101741.38
2023-06-22T22:16:11.701Z,101743.81
2023-06-22T22:18:38.743Z,101746.47
2023-06-22T22:21:05.774Z,101749.38
2023-06-22T22:23:33.104Z,101759.00
2023-06-22T22:26:00.226Z,101763.13
2023-06-22T22:28:27.265Z,101763.53
2023-06-22T22:30:54.406Z,101767.00
2023-06-22T22:33:21.464Z,101779.13
2023-06-22T22:35:48.604Z,101783.66
2023-06-22T22:38:15.585Z,101790.97
2023-06-22T22:40:42.703Z,101784.78
2023-06-22T22:43:09.998Z,101788.06
2023-06-22T22:45:37.202Z,101787.47
2023-06-22T22:48:04.892Z,101789.72
2023-06-22T22:50:32.223Z,101794.59
2023-06-22T22:52:59.330Z,101800.13
2023-06-22T22:55:26.416Z,101802.75
2023-06-22T22:57:54.795Z,101809.59
2023-06-22T23:00:21.893Z,101806.72
2023-06-22T23:02:49.176Z,101808.34
2023-06-22T23:05:16.485Z,101820.41
2023-06-22T23:07:43.841Z,101820.38
2023-06-22T23:10:13.296Z,101826.47
2023-06-22T23:12:40.800Z,101827.09
2023-06-22T23:15:09.196Z,101823.69
2023-06-22T23:17:36.935Z,101832.22
2023-06-22T23:20:04.833Z,101835.25
2023-06-22T23:22:32.014Z,101838.72
2023-06-22T23:24:59.167Z,101839.09
2023-06-22T23:27:26.142Z,101841.75
2023-06-22T23:29:53.214Z,101848.66
2023-06-22T23:32:20.313Z,101856.38
2023-06-22T23:34:47.402Z,101853.91
2023-06-22T23:37:14.758Z,101857.38
2023-06-22T23:39:44.721Z,101855.44
2023-06-22T23:42:11.763Z,101862.00
2023-06-22T23:44:39.140Z,101855.63
2023-06-22T23:47:06.552Z,101865.69
2023-06-22T23:49:33.709Z,101856.94
2023-06-22T23:52:00.832Z,101855.63
2023-06-22T23:54:28.242Z,101865.75
2023-06-22T23:56:55.465Z,101864.16
2023-06-22T23:59:22.475Z,101860.81
